createdAt,value
2022-10-01T00:00:14.443Z,98304.25
2022-10-01T00:03:38.332Z,98314.75
2022-10-01T00:06:43.084Z,98308.13
2022-10-01T00:09:46.277Z,98301.81
2022-10-01T00:12:50.296Z,98306.50
2022-10-01T00:15:53.784Z,98310.88
2022-10-01T00:18:57.385Z,98306.19
2022-10-01T00:22:01.927Z,98301.50
2022-10-01T00:25:06.809Z,98302.13
2022-10-01T00:28:12.099Z,98296.63
2022-10-01T00:31:17.306Z,98297.75
2022-10-01T00:34:20.512Z,98296.94
2022-10-01T00:37:24.944Z,98291.13
2022-10-01T00:40:28.391Z,98291.13
2022-10-01T00:43:34.171Z,98298.88
2022-10-01T00:46:43.259Z,98289.00
2022-10-01T00:49:47.278Z,98285.13
2022-10-01T00:52:55.683Z,98295.81
2022-10-01T00:56:01.009Z,98295.00
2022-10-01T00:59:04.685Z,98295.50
2022-10-01T01:02:07.975Z,98295.50
2022-10-01T01:05:12.140Z,98286.75
2022-10-01T01:08:17.653Z,98285.94
2022-10-01T01:11:30.481Z,98283.50
2022-10-01T01:14:43.193Z,98277.69
2022-10-01T01:17:55.846Z,98278.00
2022-10-01T01:21:19.272Z,98265.88
2022-10-01T01:24:41.114Z,98272.19
2022-10-01T01:27:59.480Z,98279.63
2022-10-01T01:31:11.363Z,98285.13
2022-10-01T01:34:22.632Z,98280.44
2022-10-01T01:37:31.896Z,98283.50
2022-10-01T01:40:38.547Z,98278.00
2022-10-01T01:43:47.047Z,98273.63
2022-10-01T01:46:55.237Z,98272.50
2022-10-01T01:49:59.097Z,98270.56
2022-10-01T01:53:03.045Z,98261.81
2022-10-01T01:56:08.500Z,98263.44
2022-10-01T01:59:16.294Z,98265.38
2022-10-01T02:02:24.721Z,98272.00
2022-10-01T02:05:34.092Z,98275.25
2022-10-01T02:08:41.655Z,98277.19
2022-10-01T02:11:55.203Z,98277.19
2022-10-01T02:15:10.579Z,98277.19
2022-10-01T02:18:22.372Z,98274.13
2022-10-01T02:21:32.774Z,98280.44
2022-10-01T02:24:44.022Z,98278.50
2022-10-01T02:27:53.686Z,98276.38
2022-10-01T02:31:01.037Z,98280.75
2022-10-01T02:34:12.489Z,98284.31
2022-10-01T02:37:19.227Z,98278.81
2022-10-01T02:40:28.426Z,98280.75
2022-10-01T02:43:42.620Z,98277.69
2022-10-01T02:46:55.704Z,98280.75
2022-10-01T02:49:58.735Z,98278.00
2022-10-01T02:53:07.464Z,98285.44
2022-10-01T02:56:14.943Z,98293.69
2022-10-01T02:59:17.695Z,98288.19
2022-10-01T03:02:23.048Z,98292.88
2022-10-01T03:05:28.091Z,98284.63
2022-10-01T03:08:31.552Z,98287.38
2022-10-01T03:11:35.472Z,98283.50
2022-10-01T03:14:39.389Z,98283.50
2022-10-01T03:17:44.487Z,98288.69
2022-10-01T03:20:49.239Z,98289.81
2022-10-01T03:23:52.508Z,98283.50
2022-10-01T03:26:56.742Z,98288.19
2022-10-01T03:30:00.190Z,98280.75
2022-10-01T03:33:04.708Z,98270.34
2022-10-01T03:36:08.684Z,98273.63
2022-10-01T03:39:11.826Z,98265.38
2022-10-01T03:42:15.932Z,98261.50
2022-10-01T03:45:19.127Z,98265.06
2022-10-01T03:48:24.319Z,98276.06
2022-10-01T03:51:28.183Z,98264.75
2022-10-01T03:54:32.207Z,98264.75
2022-10-01T03:57:35.232Z,98264.75
2022-10-01T04:00:38.713Z,98257.31
2022-10-01T04:03:44.040Z,98249.38
2022-10-01T04:06:47.615Z,98259.25
2022-10-01T04:09:51.052Z,98256.81
2022-10-01T04:12:55.639Z,98245.81
2022-10-01T04:15:58.700Z,98249.69
2022-10-01T04:19:04.449Z,98246.13
2022-10-01T04:22:07.496Z,98237.88
2022-10-01T04:25:12.957Z,98237.88
2022-10-01T04:28:16.784Z,98242.53
2022-10-01T04:31:26.351Z,98244.19
2022-10-01T04:34:45.030Z,98244.47
2022-10-01T04:37:49.950Z,98247.22
2022-10-01T04:40:52.988Z,98248.88
2022-10-01T04:43:56.266Z,98247.75
2022-10-01T04:46:59.459Z,98251.63
2022-10-01T04:50:04.983Z,98253.25
2022-10-01T04:53:07.989Z,98249.69
2022-10-01T04:56:11.565Z,98249.69
2022-10-01T04:59:14.626Z,98254.34
2022-10-01T05:02:18.270Z,98253.25
2022-10-01T05:05:27.375Z,98252.94
2022-10-01T05:08:31.169Z,98241.13
2022-10-01T05:11:34.857Z,98251.00
2022-10-01T05:14:38.354Z,98258.13
2022-10-01T05:17:41.512Z,98256.50
2022-10-01T05:20:46.458Z,98258.63
2022-10-01T05:23:49.807Z,98258.94
2022-10-01T05:26:54.958Z,98251.50
2022-10-01T05:29:58.449Z,98249.25
2022-10-01T05:33:06.349Z,98249.88
2022-10-01T05:36:10.872Z,98249.25
2022-10-01T05:39:14.344Z,98247.63
2022-10-01T05:42:17.328Z,98244.88
2022-10-01T05:45:22.966Z,98235.63
2022-10-01T05:48:26.146Z,98235.09
2022-10-01T05:51:31.173Z,98239.50
2022-10-01T05:54:34.680Z,98241.44
2022-10-01T05:57:38.877Z,98233.69
2022-10-01T06:00:43.133Z,98224.00
2022-10-01T06:03:46.403Z,98225.63
2022-10-01T06:06:50.805Z,98231.44
2022-10-01T06:09:54.180Z,98235.00
2022-10-01T06:13:00.404Z,98232.88
2022-10-01T06:16:03.685Z,98230.63
2022-10-01T06:19:07.490Z,98224.00
2022-10-01T06:22:11.983Z,98225.13
2022-10-01T06:25:15.614Z,98228.38
2022-10-01T06:28:19.257Z,98214.63
2022-10-01T06:31:22.920Z,98216.25
2022-10-01T06:34:26.695Z,98223.69
2022-10-01T06:37:31.098Z,98217.88
2022-10-01T06:40:34.508Z,98222.25
2022-10-01T06:43:37.415Z,98225.97
2022-10-01T06:46:40.712Z,98221.59
2022-10-01T06:49:47.359Z,98231.78
2022-10-01T06:52:53.157Z,98224.34
2022-10-01T06:55:56.397Z,98227.59
2022-10-01T06:58:59.713Z,98216.16
2022-10-01T07:02:02.897Z,98219.41
2022-10-01T07:05:08.122Z,98225.69
2022-10-01T07:08:13.017Z,98222.31
2022-10-01T07:11:16.279Z,98227.50
2022-10-01T07:14:19.286Z,98224.94
2022-10-01T07:17:22.996Z,98220.44
2022-10-01T07:20:25.959Z,98233.09
2022-10-01T07:23:30.870Z,98232.13
2022-10-01T07:26:33.893Z,98232.81
2022-10-01T07:29:37.314Z,98235.75
2022-10-01T07:32:40.252Z,98235.44
2022-10-01T07:35:43.603Z,98228.97
2022-10-01T07:38:51.509Z,98226.72
2022-10-01T07:41:54.656Z,98227.75
2022-10-01T07:44:57.607Z,98228.25
2022-10-01T07:48:03.397Z,98226.00
2022-10-01T07:51:06.783Z,98221.28
2022-10-01T07:54:11.608Z,98223.25
2022-10-01T07:57:15.277Z,98234.25
2022-10-01T08:00:19.537Z,98219.00
2022-10-01T08:03:22.476Z,98216.72
2022-10-01T08:06:25.950Z,98223.97
2022-10-01T08:09:30.637Z,98221.09
2022-10-01T08:12:34.142Z,98220.28
2022-10-01T08:15:37.358Z,98224.19
2022-10-01T08:18:41.620Z,98219.47
2022-10-01T08:21:44.742Z,98207.66
2022-10-01T08:24:49.295Z,98201.34
2022-10-01T08:27:53.840Z,98186.44
2022-10-01T08:30:57.920Z,98193.56
2022-10-01T08:34:00.973Z,98188.88
2022-10-01T08:37:04.319Z,98183.38
2022-10-01T08:40:11.291Z,98187.25
2022-10-01T08:43:30.656Z,98187.34
2022-10-01T08:46:38.269Z,98196.25
2022-10-01T08:49:45.698Z,98194.16
2022-10-01T08:52:54.821Z,98188.34
2022-10-01T08:56:01.808Z,98179.28
2022-10-01T08:59:16.581Z,98174.22
2022-10-01T09:02:23.723Z,98173.44
2022-10-01T09:05:42.159Z,98174.56
2022-10-01T09:09:03.817Z,98167.94
2022-10-01T09:12:28.247Z,98164.03
2022-10-01T09:15:42.194Z,98155.78
2022-10-01T09:18:58.971Z,98161.28
2022-10-01T09:22:12.382Z,98166.78
2022-10-01T09:25:22.609Z,98156.25
2022-10-01T09:28:30.474Z,98157.06
2022-10-01T09:31:42.235Z,98158.69
2022-10-01T09:34:46.023Z,98143.00
2022-10-01T09:37:55.732Z,98146.28
2022-10-01T09:41:00.326Z,98134.13
2022-10-01T09:44:05.171Z,98139.00
2022-10-01T09:47:18.399Z,98129.94
2022-10-01T09:50:31.192Z,98136.25
2022-10-01T09:53:41.180Z,98126.69
2022-10-01T09:56:50.206Z,98122.59
2022-10-01T10:00:04.543Z,98119.34
2022-10-01T10:03:07.988Z,98117.72
2022-10-01T10:06:11.226Z,98111.25
2022-10-01T10:09:19.297Z,98117.09
2022-10-01T10:12:29.390Z,98116.28
2022-10-01T10:15:33.995Z,98103.94
2022-10-01T10:18:40.028Z,98106.22
2022-10-01T10:21:52.960Z,98096.66
2022-10-01T10:24:58.436Z,98100.53
2022-10-01T10:28:02.417Z,98092.28
2022-10-01T10:31:13.661Z,98086.28
2022-10-01T10:34:19.528Z,98080.00
2022-10-01T10:37:29.075Z,98079.19
2022-10-01T10:40:41.445Z,98072.03
2022-10-01T10:43:45.095Z,98053.09
2022-10-01T10:46:51.501Z,98048.72
2022-10-01T10:49:57.972Z,98042.09
2022-10-01T10:53:01.086Z,98034.97
2022-10-01T10:56:06.958Z,98030.28
2022-10-01T10:59:09.884Z,98023.63
2022-10-01T11:02:19.082Z,98014.09
2022-10-01T11:05:24.985Z,98003.88
2022-10-01T11:08:29.634Z,98001.13
2022-10-01T11:11:49.083Z,97992.06
2022-10-01T11:15:17.003Z,97981.56
2022-10-01T11:18:43.936Z,97984.63
2022-10-01T11:22:02.125Z,97975.88
2022-10-01T11:25:32.224Z,97968.44
2022-10-01T11:28:51.985Z,97960.97
2022-10-01T11:32:05.276Z,97957.09
2022-10-01T11:35:42.292Z,97941.22
2022-10-01T11:38:55.266Z,97944.47
2022-10-01T11:42:03.795Z,97942.03
2022-10-01T11:45:17.545Z,97937.34
2022-10-01T11:48:29.805Z,97937.34
2022-10-01T11:51:42.749Z,97921.66
2022-10-01T11:55:19.956Z,97923.59
2022-10-01T11:58:49.477Z,97919.22
2022-10-01T12:02:04.186Z,97904.31
2022-10-01T12:05:13.391Z,97901.91
2022-10-01T12:08:25.106Z,97903.53
2022-10-01T12:11:33.094Z,97892.50
2022-10-01T12:14:44.307Z,97891.69
2022-10-01T12:17:54.780Z,97879.06
2022-10-01T12:21:02.172Z,97879.06
2022-10-01T12:24:12.880Z,97877.44
2022-10-01T12:27:37.031Z,97875.84
2022-10-01T12:30:48.018Z,97871.47
2022-10-01T12:34:06.920Z,97875.84
2022-10-01T12:37:25.534Z,97876.66
2022-10-01T12:40:40.834Z,97872.59
2022-10-01T12:44:01.733Z,97868.25
2022-10-01T12:47:28.445Z,97871.00
2022-10-01T12:50:44.158Z,97863.06
2022-10-01T12:53:57.292Z,97862.25
2022-10-01T12:57:19.665Z,97866.13
2022-10-01T13:00:25.706Z,97867.28
2022-10-01T13:04:03.486Z,97860.97
2022-10-01T13:07:34.122Z,97855.78
2022-10-01T13:10:57.149Z,97854.16
2022-10-01T13:14:04.198Z,97851.41
2022-10-01T13:17:14.245Z,97854.16
2022-10-01T13:20:30.169Z,97850.91
2022-10-01T13:23:40.488Z,97860.78
2022-10-01T13:26:52.959Z,97853.66
2022-10-01T13:30:01.753Z,97846.53
2022-10-01T13:33:22.657Z,97839.44
2022-10-01T13:36:32.506Z,97839.91
2022-10-01T13:39:39.507Z,97832.78
2022-10-01T13:42:47.295Z,97827.28
2022-10-01T13:45:55.071Z,97829.22
2022-10-01T13:49:04.353Z,97827.28
2022-10-01T13:52:07.872Z,97817.41
2022-10-01T13:55:27.892Z,97820.16
2022-10-01T13:58:39.430Z,97813.03
2022-10-01T14:01:43.977Z,97812.28
2022-10-01T14:04:49.063Z,97810.31
2022-10-01T14:07:59.159Z,97803.22
2022-10-01T14:11:24.181Z,97801.59
2022-10-01T14:14:52.737Z,97805.97
2022-10-01T14:17:58.385Z,97792.53
2022-10-01T14:21:18.154Z,97793.34
2022-10-01T14:24:32.472Z,97780.72
2022-10-01T14:27:46.717Z,97781.84
2022-10-01T14:30:59.612Z,97774.09
2022-10-01T14:34:39.374Z,97769.72
2022-10-01T14:37:42.709Z,97766.97
2022-10-01T14:40:49.870Z,97755.97
2022-10-01T14:43:52.995Z,97749.66
2022-10-01T14:46:58.606Z,97751.59
2022-10-01T14:50:10.973Z,97757.41
2022-10-01T14:53:18.135Z,97744.47
2022-10-01T14:56:22.844Z,97742.53
2022-10-01T14:59:35.963Z,97734.59
2022-10-01T15:02:46.467Z,97726.34
2022-10-01T15:05:51.795Z,97727.97
2022-10-01T15:08:57.167Z,97726.34
2022-10-01T15:12:00.608Z,97716.97
2022-10-01T15:15:04.096Z,97723.59
2022-10-01T15:18:08.006Z,97717.28
2022-10-01T15:21:20.209Z,97721.97
2022-10-01T15:24:27.391Z,97721.97
2022-10-01T15:27:30.899Z,97720.03
2022-10-01T15:30:37.236Z,97722.78
2022-10-01T15:33:42.315Z,97730.22
2022-10-01T15:36:48.827Z,97708.22
2022-10-01T15:39:52.702Z,97703.38
2022-10-01T15:43:35.947Z,97694.47
2022-10-01T15:46:39.741Z,97701.91
2022-10-01T15:50:01.877Z,97710.50
2022-10-01T15:53:11.925Z,97707.41
2022-10-01T15:56:19.397Z,97708.88
2022-10-01T15:59:22.673Z,97706.59
2022-10-01T16:02:29.718Z,97704.19
2022-10-01T16:05:39.878Z,97705.31
2022-10-01T16:09:00.132Z,97713.56
2022-10-01T16:12:06.612Z,97710.00
2022-10-01T16:15:26.776Z,97706.13
2022-10-01T16:18:32.806Z,97706.44
2022-10-01T16:21:41.260Z,97696.56
2022-10-01T16:24:48.036Z,97708.06
2022-10-01T16:28:03.698Z,97702.09
2022-10-01T16:31:07.168Z,97709.19
2022-10-01T16:34:12.800Z,97698.53
2022-10-01T16:37:16.481Z,97687.53
2022-10-01T16:40:24.178Z,97684.78
2022-10-01T16:43:28.073Z,97685.59
2022-10-01T16:46:30.981Z,97681.56
2022-10-01T16:49:35.080Z,97679.63
2022-10-01T16:52:38.643Z,97677.69
2022-10-01T16:55:44.357Z,97674.94
2022-10-01T16:58:47.605Z,97684.78
2022-10-01T17:01:53.584Z,97677.69
2022-10-01T17:04:56.732Z,97678.81
2022-10-01T17:08:01.023Z,97680.44
2022-10-01T17:11:11.910Z,97678.81
2022-10-01T17:14:18.060Z,97676.06
2022-10-01T17:17:21.607Z,97667.81
2022-10-01T17:20:28.400Z,97663.44
2022-10-01T17:23:31.705Z,97670.09
2022-10-01T17:26:36.418Z,97661.50
2022-10-01T17:29:39.762Z,97660.69
2022-10-01T17:32:43.862Z,97654.72
2022-10-01T17:35:51.527Z,97656.00
2022-10-01T17:38:54.669Z,97666.19
2022-10-01T17:41:59.034Z,97646.94
2022-10-01T17:45:02.854Z,97653.59
2022-10-01T17:48:07.484Z,97653.59
2022-10-01T17:51:14.299Z,97659.88
2022-10-01T17:54:17.756Z,97656.34
2022-10-01T17:57:22.593Z,97667.66
2022-10-01T18:00:26.034Z,97689.97
2022-10-01T18:03:29.814Z,97719.59
2022-10-01T18:06:33.546Z,97716.50
2022-10-01T18:09:37.172Z,97721.16
2022-10-01T18:12:41.791Z,97717.94
2022-10-01T18:15:45.097Z,97730.53
2022-10-01T18:19:52.000Z,97716.94
2022-10-01T18:22:14.308Z,97733.75
2022-10-01T18:25:19.357Z,97741.34
2022-10-01T18:28:25.122Z,97734.69
2022-10-01T18:31:34.522Z,97744.38
2022-10-01T18:34:46.469Z,97746.28
2022-10-01T18:37:53.531Z,97744.63
2022-10-01T18:41:05.039Z,97748.06
2022-10-01T18:44:18.017Z,97754.97
2022-10-01T18:47:36.285Z,97753.34
2022-10-01T18:50:49.620Z,97753.94
2022-10-01T18:54:17.070Z,97760.41
2022-10-01T18:57:36.406Z,97756.53
2022-10-01T19:00:50.984Z,97755.50
2022-10-01T19:04:28.441Z,97758.56
2022-10-01T19:08:00.978Z,97759.53
2022-10-01T19:11:18.165Z,97755.63
2022-10-01T19:14:40.678Z,97756.09
2022-10-01T19:18:10.171Z,97753.94
2022-10-01T19:21:27.818Z,97759.94
2022-10-01T19:24:57.915Z,97754.44
2022-10-01T19:28:17.628Z,97756.72
2022-10-01T19:31:30.572Z,97748.78
2022-10-01T19:34:43.790Z,97755.09
2022-10-01T19:37:51.834Z,97759.28
2022-10-01T19:41:00.840Z,97758.81
2022-10-01T19:44:11.266Z,97767.88
2022-10-01T19:47:32.268Z,97760.91
2022-10-01T19:50:41.853Z,97768.69
2022-10-01T19:53:51.746Z,97760.59
2022-10-01T19:57:02.022Z,97763.34
2022-10-01T20:00:17.379Z,97762.22
2022-10-01T20:03:30.294Z,97762.88
2022-10-01T20:06:38.827Z,97772.44
2022-10-01T20:09:46.999Z,97766.78
2022-10-01T20:13:18.658Z,97768.28
2022-10-01T20:16:29.193Z,97768.13
2022-10-01T20:19:42.182Z,97770.91
2022-10-01T20:23:13.381Z,97773.53
2022-10-01T20:26:24.736Z,97771.44
2022-10-01T20:29:39.822Z,97777.91
2022-10-01T20:32:52.187Z,97779.06
2022-10-01T20:36:05.329Z,97781.00
2022-10-01T20:39:19.211Z,97787.19
2022-10-01T20:42:33.676Z,97785.56
2022-10-01T20:45:37.915Z,97780.06
2022-10-01T20:48:45.060Z,97786.72
2022-10-01T20:51:56.927Z,97793.69
2022-10-01T20:55:07.947Z,97784.63
2022-10-01T20:58:17.573Z,97794.50
2022-10-01T21:01:24.526Z,97788.97
2022-10-01T21:04:33.746Z,97795.16
2022-10-01T21:07:45.255Z,97789.63
2022-10-01T21:10:53.739Z,97798.22
2022-10-01T21:14:05.057Z,97792.22
2022-10-01T21:17:33.682Z,97801.97
2022-10-01T21:20:48.484Z,97789.34
2022-10-01T21:24:06.446Z,97799.88
2022-10-01T21:27:30.559Z,97793.56
2022-10-01T21:30:44.132Z,97802.97
2022-10-01T21:33:54.027Z,97796.94
2022-10-01T21:37:05.496Z,97800.81
2022-10-01T21:40:20.751Z,97797.25
2022-10-01T21:43:45.286Z,97799.53
2022-10-01T21:46:56.331Z,97794.03
2022-10-01T21:50:14.036Z,97805.03
2022-10-01T21:53:36.629Z,97803.78
2022-10-01T21:57:03.502Z,97805.72
2022-10-01T22:00:19.315Z,97815.09
2022-10-01T22:03:32.299Z,97810.75
2022-10-01T22:06:44.979Z,97810.75
2022-10-01T22:10:07.043Z,97808.31
2022-10-01T22:13:17.612Z,97813.00
2022-10-01T22:16:26.216Z,97806.69
2022-10-01T22:19:31.577Z,97817.69
2022-10-01T22:22:39.202Z,97820.78
2022-10-01T22:25:51.988Z,97812.84
2022-10-01T22:28:56.848Z,97816.41
2022-10-01T22:32:05.828Z,97821.59
2022-10-01T22:35:17.986Z,97822.41
2022-10-01T22:38:26.836Z,97826.28
2022-10-01T22:41:36.055Z,97832.91
2022-10-01T22:44:39.349Z,97831.31
2022-10-01T22:48:00.785Z,97834.38
2022-10-01T22:51:20.108Z,97834.69
2022-10-01T22:54:39.989Z,97833.56
2022-10-01T22:58:02.008Z,97839.06
2022-10-01T23:01:25.624Z,97841.00
2022-10-01T23:04:42.817Z,97840.19
2022-10-01T23:07:55.341Z,97844.09
2022-10-01T23:11:18.745Z,97846.38
2022-10-01T23:14:40.513Z,97842.00
2022-10-01T23:17:49.118Z,97845.41
2022-10-01T23:21:09.280Z,97841.53
2022-10-01T23:24:31.255Z,97848.97
2022-10-01T23:27:46.175Z,97865.00
2022-10-01T23:31:01.823Z,97855.94
2022-10-01T23:34:23.749Z,97856.25
2022-10-01T23:37:49.959Z,97871.94
2022-10-01T23:40:54.604Z,97861.75
2022-10-01T23:44:13.596Z,97869.19
2022-10-01T23:47:25.154Z,97867.56
2022-10-01T23:50:34.414Z,97868.72
2022-10-01T23:53:48.567Z,97864.00
2022-10-01T23:56:56.448Z,97887.97
